Latest Weather Observations for Scoresby

IDV60901

Issued at 5:51 pm EST Wednesday 4 May 2016 (issued every 10 minutes, with the page automatically refreshed every 10 minutes)

About weather observations | Map of Melbourne area stations | Latest observations for Melbourne area | Other Formats
Station Details ID: 086104 Name: SCORESBY RESEARCH INSTITUTE Lat: -37.87 Lon: 145.26 Height: 80.0 m
Data from the previous 72 hours. | See also: Recent months at Scoresby
Date/Time
EST
Tmp

°C
App
Tmp
°C
Dew
Point
°C
Rel
Hum
%
Delta-T

°C
Wind Press
QNH
hPa
Press
MSL
hPa
Rain
since
9 am
mm
Dir
 
Spd
km/h
Gust
km/h
Spd
kts
Gust
kts
04/05:30pm 14.8 11.0 5.9 55 4.3 N 15 22 8 12 - - 0.0
04/05:00pm 15.1 11.6 5.6 53 4.5 N 13 26 7 14 - - 0.0
04/04:30pm 15.5 12.2 4.8 49 5.0 NNW 11 22 6 12 - - 0.0
04/04:00pm 15.6 12.3 4.3 47 5.3 NNW 11 24 6 13 - - 0.0
04/03:30pm 15.6 12.0 4.9 49 5.1 NNW 13 24 7 13 - - 0.0
04/03:00pm 15.9 11.8 4.3 46 5.4 NNW 15 26 8 14 - - 0.0
04/02:30pm 15.8 11.7 4.5 47 5.3 NNW 15 26 8 14 - - 0.0
04/02:00pm 16.0 12.0 4.7 47 5.3 NNW 15 26 8 14 - - 0.0
04/01:30pm 15.2 11.6 4.9 50 4.9 NW 13 26 7 14 - - 0.0
04/01:00pm 16.2 13.1 5.5 49 5.1 NW 11 22 6 12 - - 0.0
04/12:30pm 16.5 13.3 4.9 46 5.5 NNW 11 26 6 14 - - 0.0
04/12:00pm 15.5 12.2 4.8 49 5.0 NNW 11 20 6 11 - - 0.0
04/11:30am 15.2 11.7 5.4 52 4.7 NNW 13 19 7 10 - - 0.0
04/11:00am 14.5 11.4 5.6 55 4.2 NNW 11 20 6 11 - - 0.0
04/10:30am 14.0 11.2 5.1 55 4.2 NW 9 19 5 10 - - 0.0
04/10:00am 13.2 10.1 5.6 60 3.6 NW 11 22 6 12 - - 0.0
04/09:30am 12.6 10.1 6.6 67 2.9 N 9 17 5 9 - - 0.0
04/09:00am 11.3 8.7 6.0 70 2.5 NNE 9 19 5 10 - - 5.0
04/08:30am 10.4 7.7 5.4 71 2.3 NNE 9 17 5 9 - - 5.0
04/08:00am 9.4 6.7 5.4 76 1.8 NNE 9 13 5 7 - - 5.0
04/07:30am 8.0 5.7 4.8 80 1.4 NE 6 9 3 5 - - 5.0
04/07:00am 7.6 5.6 4.6 81 1.3 NNE 4 7 2 4 - - 5.0
04/06:30am 7.1 4.8 4.6 84 1.1 NE 6 7 3 4 - - 5.0
04/06:00am 7.2 4.9 4.9 85 1.0 NE 6 7 3 4 - - 5.0
04/05:30am 7.0 5.5 4.8 86 1.0 NE 2 4 1 2 - - 5.0
04/05:00am 7.9 6.0 4.7 80 1.4 NE 4 7 2 4 - - 5.0
04/04:30am 7.5 5.9 4.6 82 1.3 N 2 4 1 2 - - 5.0
04/04:00am 7.8 6.7 5.3 84 1.1 CALM 0 4 0 2 - - 5.0
04/03:30am 7.9 6.7 4.5 79 1.5 CALM 0 2 0 1 - - 5.0
04/03:00am 9.9 8.3 4.7 70 2.3 N 2 6 1 3 - - 5.0
04/02:30am 10.9 8.7 5.2 68 2.6 NNW 6 13 3 7 - - 5.0
04/02:00am 11.1 8.7 5.2 67 2.7 NW 7 11 4 6 - - 5.0
04/01:30am 11.5 9.1 5.2 65 2.9 NW 7 13 4 7 - - 5.0
04/01:00am 12.0 8.9 5.4 64 3.1 WNW 11 19 6 10 - - 5.0
04/12:30am 12.1 9.7 5.3 63 3.2 WNW 7 17 4 9 - - 5.0
04/12:00am 12.2 10.8 5.6 64 3.1 NW 2 6 1 3 - - 5.0
 
Date/Time
EST
Tmp

°C
App
Tmp
°C
Dew
Point
°C
Rel
Hum
%
Delta-T

°C
Wind Press
QNH
hPa
Press
MSL
hPa
Rain
since
9 am
mm
Dir
 
Spd
km/h
Gust
km/h
Spd
kts
Gust
kts
03/11:30pm 12.6 10.3 4.8 59 3.6 WNW 6 15 3 8 - - 5.0
03/11:00pm 12.4 10.0 5.1 61 3.4 WNW 7 13 4 7 - - 5.0
03/10:30pm 12.7 9.6 5.4 61 3.4 WNW 11 26 6 14 - - 5.0
03/10:00pm 12.1 11.0 8.4 78 1.8 N 4 6 2 3 - - 5.0
03/09:30pm 12.3 10.9 8.8 79 1.8 N 6 9 3 5 - - 5.0
03/09:00pm 12.5 11.5 9.0 79 1.8 N 4 6 2 3 - - 5.0
03/08:30pm 11.5 11.5 9.9 90 0.8 CALM 0 0 0 0 - - 5.0
03/08:00pm 12.0 11.8 9.0 82 1.5 CALM 0 0 0 0 - - 5.0
03/07:30pm 12.8 11.2 8.7 76 2.1 WSW 7 19 4 10 - - 4.8
03/07:00pm 13.4 10.5 8.3 71 2.5 W 13 22 7 12 - - 4.8
03/06:30pm 13.2 11.9 9.8 80 1.8 WSW 7 15 4 8 - - 4.8
03/06:00pm 12.9 11.7 10.4 85 1.3 WNW 7 15 4 8 - - 4.8
03/05:30pm 12.4 10.8 10.3 87 1.1 WNW 9 19 5 10 - - 4.8
03/05:00pm 12.4 9.2 10.1 86 1.2 W 17 28 9 15 - - 4.4
03/04:32pm 15.8 12.2 10.6 71 2.8 NNW 20 48 11 26 - - 0.0
03/04:30pm 16.1 13.0 11.7 75 2.4 NNW 19 44 10 24 - - 0.0
03/04:00pm 16.8 12.2 10.9 68 3.2 NNW 26 52 14 28 - - 0.0
03/03:30pm 17.4 13.2 9.6 60 4.1 NNW 22 44 12 24 - - 0.0
03/03:00pm 17.1 12.8 9.3 60 4.1 N 22 41 12 22 - - 0.0
03/02:32pm 17.4 11.9 9.1 58 4.3 N 28 46 15 25 - - 0.0
03/02:30pm 17.6 12.4 9.0 57 4.5 N 26 46 14 25 - - 0.0
03/02:00pm 17.3 11.2 8.4 56 4.6 NNW 30 50 16 27 - - 0.0
03/01:30pm 17.6 10.5 7.9 53 4.9 NNW 35 57 19 31 - - 0.0
03/01:00pm 18.5 12.4 8.2 51 5.3 NNW 30 54 16 29 - - 0.0
03/12:30pm 18.6 12.7 7.7 49 5.6 NNW 28 48 15 26 - - 0.0
03/12:00pm 18.9 12.3 7.7 48 5.7 NNW 32 56 17 30 - - 0.0
03/11:30am 19.4 13.1 7.5 46 6.1 NNW 30 52 16 28 - - 0.0
03/11:00am 18.5 11.7 6.7 46 5.9 NNW 32 63 17 34 - - 0.0
03/10:30am 18.8 11.7 6.6 45 6.1 N 33 61 18 33 - - 0.0
03/10:00am 18.4 11.2 5.9 44 6.2 NNW 33 61 18 33 - - 0.0
03/09:30am 18.3 11.3 5.8 44 6.1 NNW 32 61 17 33 - - 0.0
03/09:00am 17.8 11.7 6.7 48 5.5 N 28 59 15 32 - - 0.0
03/08:30am 17.2 10.8 7.0 51 5.1 N 30 63 16 34 - - 0.0
03/08:14am 16.8 10.8 6.9 52 4.9 NNW 28 50 15 27 - - 0.0
03/08:00am 16.5 11.3 7.2 54 4.6 NNW 24 52 13 28 - - 0.0
03/07:30am 16.4 10.3 6.8 53 4.7 N 28 52 15 28 - - 0.0
03/07:25am 16.4 10.3 6.8 53 4.7 N 28 52 15 28 - - 0.0
03/07:00am 16.3 10.9 6.4 52 4.9 NNW 24 46 13 25 - - 0.0
03/06:30am 16.3 10.9 6.2 51 4.9 NNW 24 44 13 24 - - 0.0
03/06:00am 16.3 11.2 6.2 51 4.9 N 22 39 12 21 - - 0.0
03/05:30am 15.9 11.1 5.8 51 4.9 N 20 33 11 18 - - 0.0
03/05:00am 16.8 11.0 6.3 50 5.2 N 26 46 14 25 - - 0.0
03/04:30am 16.6 11.7 6.7 52 4.9 N 22 43 12 23 - - 0.0
03/04:00am 15.8 11.3 6.8 55 4.4 N 20 41 11 22 - - 0.0
03/03:30am 15.8 11.1 6.0 52 4.7 NNW 20 41 11 22 - - 0.0
03/03:00am 16.4 10.0 5.1 47 5.4 NNW 28 50 15 27 - - 0.0
03/02:55am 16.5 10.1 5.2 47 5.4 NNW 28 50 15 27 - - 0.0
03/02:30am 16.8 11.1 5.1 46 5.6 NNW 24 44 13 24 - - 0.0
03/02:00am 16.4 11.6 4.4 45 5.7 N 19 37 10 20 - - 0.0
03/01:30am 15.9 11.0 4.3 46 5.4 N 19 37 10 20 - - 0.0
03/01:00am 15.9 11.5 4.6 47 5.3 N 17 30 9 16 - - 0.0
03/12:30am 15.6 11.2 4.6 48 5.2 N 17 32 9 17 - - 0.0
03/12:00am 15.1 10.7 4.8 50 4.8 N 17 28 9 15 - - 0.0
 
Date/Time
EST
Tmp

°C
App
Tmp
°C
Dew
Point
°C
Rel
Hum
%
Delta-T

°C
Wind Press
QNH
hPa
Press
MSL
hPa
Rain
since
9 am
mm
Dir
 
Spd
km/h
Gust
km/h
Spd
kts
Gust
kts
02/11:30pm 15.1 10.1 4.8 50 4.8 N 20 30 11 16 - - 0.0
02/11:00pm 15.1 10.7 4.8 50 4.8 N 17 26 9 14 - - 0.0
02/10:30pm 14.7 9.9 4.7 51 4.7 N 19 32 10 17 - - 0.0
02/10:00pm 14.7 10.0 5.0 52 4.6 N 19 30 10 16 - - 0.0
02/09:30pm 14.7 10.0 5.0 52 4.6 N 19 32 10 17 - - 0.0
02/09:00pm 14.7 9.4 5.2 53 4.5 N 22 37 12 20 - - 0.0
02/08:30pm 14.5 10.2 5.3 54 4.4 N 17 28 9 15 - - 0.0
02/08:00pm 14.3 9.7 5.4 55 4.2 N 19 32 10 17 - - 0.0
02/07:30pm 14.2 10.4 5.6 56 4.1 N 15 24 8 13 - - 0.0
02/07:00pm 14.3 10.1 5.7 56 4.1 N 17 26 9 14 - - 0.0
02/06:30pm 14.7 10.5 5.5 54 4.4 N 17 28 9 15 - - 0.0
02/06:00pm 14.8 10.8 5.1 52 4.6 N 15 28 8 15 - - 0.0
02/05:30pm 15.3 11.7 5.0 50 4.9 N 13 24 7 13 - - 0.0
02/05:00pm 15.9 11.2 5.2 49 5.1 N 19 39 10 21 - - 0.0
02/04:30pm 15.9 11.0 5.2 49 5.1 NNW 20 39 11 21 - - 0.0
02/04:00pm 16.5 11.8 5.2 47 5.4 NNW 19 35 10 19 - - 0.0
02/03:30pm 16.5 11.3 5.5 48 5.3 NNW 22 43 12 23 - - 0.0
02/03:00pm 16.5 11.9 5.8 49 5.2 NNW 19 39 10 21 - - 0.0
02/02:30pm 16.7 11.8 5.3 47 5.5 NW 20 33 11 18 - - 0.0
02/02:00pm 16.2 10.8 4.6 46 5.5 NNW 22 41 12 22 - - 0.0
02/01:30pm 16.0 10.1 3.8 44 5.7 NNW 24 44 13 24 - - 0.0
02/01:00pm 15.9 10.1 4.3 46 5.4 NNW 24 44 13 24 - - 0.0
02/12:30pm 15.7 10.4 5.0 49 5.1 NW 22 41 12 22 - - 0.0
02/12:00pm 15.6 10.8 4.6 48 5.2 NNW 19 30 10 16 - - 0.0
02/11:30am 14.4 10.4 5.0 53 4.4 N 15 22 8 12 - - 0.0
02/11:00am 13.9 9.4 4.2 52 4.5 NNW 17 30 9 16 - - 0.0
02/10:30am 13.9 9.4 4.2 52 4.5 NNW 17 39 9 21 - - 0.0
02/10:00am 13.3 10.1 5.0 57 3.9 N 11 20 6 11 - - 0.0
02/09:30am 12.6 9.4 5.1 60 3.5 N 11 20 6 11 - - 0.0
02/09:00am 11.7 8.9 5.1 64 3.0 N 9 22 5 12 - - 1.6
02/08:30am 11.0 7.8 4.9 66 2.8 N 11 17 6 9 - - 1.6
02/08:00am 9.6 6.7 4.4 70 2.3 NNE 9 17 5 9 - - 1.6
02/07:30am 8.4 5.0 4.2 75 1.8 NNE 11 15 6 8 - - 1.6
02/07:00am 7.9 5.2 3.9 76 1.7 NNE 7 15 4 8 - - 1.6
02/06:30am 7.7 4.6 3.7 76 1.7 NNE 9 15 5 8 - - 1.6
02/06:00am 8.1 5.0 3.8 74 1.9 NNE 9 13 5 7 - - 1.6
02/05:30am 7.7 4.6 3.7 76 1.7 NNE 9 17 5 9 - - 1.6
02/05:00am 7.7 5.0 3.9 77 1.6 NNE 7 13 4 7 - - 1.6
02/04:30am 7.8 4.7 3.8 76 1.7 NNE 9 15 5 8 - - 1.6
02/04:00am 7.6 4.9 3.8 77 1.6 NNE 7 11 4 6 - - 1.6
02/03:30am 8.1 5.0 3.8 74 1.9 NNE 9 15 5 8 - - 1.6
02/03:00am 8.0 5.0 4.0 76 1.7 NNE 9 13 5 7 - - 1.6
02/02:30am 7.3 4.7 4.1 80 1.4 NNE 7 9 4 5 - - 1.6
02/02:00am 7.4 4.8 4.2 80 1.4 NNE 7 11 4 6 - - 1.6
02/01:30am 8.0 5.4 4.2 77 1.7 NNE 7 13 4 7 - - 1.6
02/01:00am 8.4 5.4 4.2 75 1.8 NNE 9 13 5 7 - - 1.6
02/12:30am 8.3 5.8 4.5 77 1.7 NNE 7 11 4 6 - - 1.6
02/12:00am 8.3 5.7 4.3 76 1.8 NNE 7 13 4 7 - - 1.6
 
Date/Time
EST
Tmp

°C
App
Tmp
°C
Dew
Point
°C
Rel
Hum
%
Delta-T

°C
Wind Press
QNH
hPa
Press
MSL
hPa
Rain
since
9 am
mm
Dir
 
Spd
km/h
Gust
km/h
Spd
kts
Gust
kts
01/11:30pm 8.4 6.1 4.6 77 1.7 NNE 6 9 3 5 - - 1.6
01/11:00pm 8.7 6.2 4.7 76 1.8 NNE 7 9 4 5 - - 1.6
01/10:30pm 8.9 6.4 4.7 75 1.9 NNE 7 11 4 6 - - 1.6
01/10:00pm 9.1 7.3 5.3 77 1.7 NNE 4 9 2 5 - - 1.6
01/09:30pm 9.5 7.3 5.1 74 2.0 NNE 6 9 3 5 - - 1.6
01/09:00pm 8.4 6.6 5.3 81 1.4 NNE 4 6 2 3 - - 1.6
01/08:30pm 10.4 8.2 5.2 70 2.4 NW 6 9 3 5 - - 1.6
01/08:00pm 10.3 8.8 5.1 70 2.4 NNW 2 6 1 3 - - 1.6
01/07:30pm 9.4 8.6 6.3 81 1.4 CALM 0 2 0 1 - - 1.6
01/07:00pm 10.9 9.2 7.4 79 1.7 WNW 6 11 3 6 - - 1.6
01/06:30pm 12.5 10.1 5.4 62 3.3 WNW 7 15 4 8 - - 1.4
01/06:00pm 12.4 10.0 5.3 62 3.3 WNW 7 15 4 8 - - 1.4

Latest Capital City Observations: Canberra | Sydney | Melbourne | Brisbane | Adelaide | Perth | Hobart | Darwin

Other Formats:

Comma delimited format used in spreadsheet applications
http://www.bom.gov.au/fwo/IDV60901/IDV60901.95867.axf

JavaScript Object Notation format (JSON) in row-major order
http://www.bom.gov.au/fwo/IDV60901/IDV60901.95867.json